Time;durP1;ratioP1;P1;durP2;ratioP2;P2;SDS_P1;SDS_P2;PMS_P1;PMS_P2;Temp;Humidity;BMP_temperature;BMP_pressure;BME280_temperature;BME280_humidity;BME280_pressure;Samples;Min_cycle;Max_cycle;Signal;HPM_P1;HPM_P2
2023/03/06 00:02:21;;;;;;;33.50;12.70;;;;;;;;;;6267524;28;20048;-60
2023/03/06 00:05:22;;;;;;;26.85;11.80;;;;;;;;;;6269071;28;20045;-60
2023/03/06 00:08:23;;;;;;;31.52;12.10;;;;;;;;;;6265652;28;20435;-61
2023/03/06 00:11:24;;;;;;;30.45;13.38;;;;;;;;;;6269381;28;20064;-61
2023/03/06 00:14:25;;;;;;;34.45;13.77;;;;;;;;;;6268053;28;20053;-60
2023/03/06 00:17:27;;;;;;;31.63;13.43;;;;;;;;;;6272293;28;20100;-59
2023/03/06 00:20:27;;;;;;;34.33;13.20;;;;;;;;;;6267527;28;20048;-60
2023/03/06 00:23:28;;;;;;;35.97;14.40;;;;;;;;;;6272065;28;20049;-60
2023/03/06 00:26:29;;;;;;;33.88;14.95;;;;;;;;;;6267652;28;20052;-60
2023/03/06 00:29:29;;;;;;;37.63;16.00;;;;;;;;;;6265466;28;20049;-60
2023/03/06 00:32:30;;;;;;;32.13;13.68;;;;;;;;;;6267921;28;20536;-61
2023/03/06 00:35:30;;;;;;;34.30;13.63;;;;;;;;;;6266778;28;20052;-60
2023/03/06 00:38:34;;;;;;;32.35;13.48;;;;;;;;;;6266466;28;20064;-62
2023/03/06 00:41:34;;;;;;;31.73;13.35;;;;;;;;;;6266513;28;20090;-60
2023/03/06 00:44:35;;;;;;;32.95;12.88;;;;;;;;;;6278256;28;20044;-63
2023/03/06 00:47:36;;;;;;;27.95;12.52;;;;;;;;;;6268509;28;20069;-62
2023/03/06 00:50:36;;;;;;;33.00;12.23;;;;;;;;;;6282095;28;20054;-63
2023/03/06 00:53:37;;;;;;;30.45;13.02;;;;;;;;;;6270040;28;20048;-61
2023/03/06 00:56:38;;;;;;;32.55;12.77;;;;;;;;;;6271037;28;20049;-60
2023/03/06 00:59:38;;;;;;;30.48;11.60;;;;;;;;;;6269178;28;20408;-62
2023/03/06 01:02:39;;;;;;;36.65;16.15;;;;;;;;;;6270229;28;20067;-60
2023/03/06 01:05:40;;;;;;;44.70;19.73;;;;;;;;;;6283274;28;20426;-60
2023/03/06 01:08:41;;;;;;;48.70;20.95;;;;;;;;;;6272076;28;20045;-62
2023/03/06 01:11:41;;;;;;;46.10;21.13;;;;;;;;;;6271977;28;20041;-62
2023/03/06 01:14:42;;;;;;;39.60;16.27;;;;;;;;;;6269354;28;20079;-63
2023/03/06 01:17:43;;;;;;;41.95;16.92;;;;;;;;;;6277745;28;20048;-62
2023/03/06 01:20:44;;;;;;;42.83;16.67;;;;;;;;;;6280048;28;20050;-61
2023/03/06 01:23:44;;;;;;;42.28;17.50;;;;;;;;;;6283774;28;20045;-62
2023/03/06 01:26:45;;;;;;;41.63;16.83;;;;;;;;;;6272755;28;20060;-60
2023/03/06 01:29:46;;;;;;;41.85;17.70;;;;;;;;;;6270184;28;20041;-62
2023/03/06 01:32:47;;;;;;;40.10;17.65;;;;;;;;;;6271554;28;20072;-61
2023/03/06 01:35:47;;;;;;;43.38;17.95;;;;;;;;;;6273277;28;20423;-63
2023/03/06 01:38:48;;;;;;;49.60;18.48;;;;;;;;;;6272873;28;20066;-61
2023/03/06 01:41:48;;;;;;;44.05;18.70;;;;;;;;;;6286441;28;20166;-61
2023/03/06 01:45:04;;;;;;;48.50;18.88;;;;;;;;;;6288139;28;20072;-61
2023/03/06 01:48:04;;;;;;;47.38;18.20;;;;;;;;;;6277173;28;20072;-63
2023/03/06 01:51:05;;;;;;;46.75;18.88;;;;;;;;;;6287924;28;20073;-60
2023/03/06 01:54:16;;;;;;;44.05;17.77;;;;;;;;;;6274535;28;20380;-62
2023/03/06 01:57:21;;;;;;;46.20;18.98;;;;;;;;;;6295904;28;20052;-60
2023/03/06 02:00:24;;;;;;;53.75;20.83;;;;;;;;;;6275151;28;20514;-60
2023/03/06 02:03:27;;;;;;;52.78;21.45;;;;;;;;;;6273921;28;20059;-60
2023/03/06 02:06:27;;;;;;;;;;;;;;;;;;6283665;28;20049;-60
2023/03/06 02:09:29;;;;;;;59.90;26.42;;;;;;;;;;6285089;28;19924;-60
2023/03/06 02:12:30;;;;;;;67.25;29.88;;;;;;;;;;6274369;28;20480;-60
2023/03/06 02:15:31;;;;;;;70.13;28.63;;;;;;;;;;6272687;28;20067;-63
2023/03/06 02:18:32;;;;;;;70.38;26.48;;;;;;;;;;6273073;28;20048;-61
2023/03/06 02:21:35;;;;;;;63.73;26.93;;;;;;;;;;6287615;28;20464;-61
2023/03/06 02:24:51;;;;;;;72.20;29.52;;;;;;;;;;6286255;28;20053;-61
2023/03/06 02:27:52;;;;;;;69.25;26.23;;;;;;;;;;6274006;28;20515;-61
2023/03/06 02:30:54;;;;;;;65.50;25.35;;;;;;;;;;6273766;28;20045;-61
2023/03/06 02:34:06;;;;;;;69.57;27.05;;;;;;;;;;6274463;28;20123;-61
2023/03/06 02:37:09;;;;;;;61.83;24.73;;;;;;;;;;6272782;28;20055;-61
2023/03/06 02:40:11;;;;;;;64.90;23.50;;;;;;;;;;6273437;28;20048;-61
2023/03/06 02:43:14;;;;;;;66.68;25.02;;;;;;;;;;6272744;28;20041;-61
2023/03/06 02:46:14;;;;;;;;;;;;;;;;;;6280205;28;20048;-60
2023/03/06 02:49:15;;;;;;;60.97;21.90;;;;;;;;;;6273875;28;20393;-61
2023/03/06 02:52:15;;;;;;;62.72;22.40;;;;;;;;;;6270357;28;20043;-61
2023/03/06 02:55:16;;;;;;;74.93;24.60;;;;;;;;;;6274664;28;20040;-62
2023/03/06 02:58:18;;;;;;;61.70;23.15;;;;;;;;;;6272243;28;20040;-61
2023/03/06 03:01:19;;;;;;;61.92;22.55;;;;;;;;;;6269867;28;20092;-61
2023/03/06 03:04:20;;;;;;;64.15;22.67;;;;;;;;;;6271956;28;20057;-62
2023/03/06 03:07:20;;;;;;;62.92;22.95;;;;;;;;;;6271013;28;20049;-62
2023/03/06 03:10:21;;;;;;;63.47;24.08;;;;;;;;;;6273591;28;20055;-60
2023/03/06 03:13:21;;;;;;;63.22;22.75;;;;;;;;;;6281372;28;20471;-60
2023/03/06 03:16:22;;;;;;;67.90;23.73;;;;;;;;;;6273937;28;20056;-61
2023/03/06 03:19:23;;;;;;;66.32;23.58;;;;;;;;;;6272082;28;20052;-60
2023/03/06 03:22:24;;;;;;;64.50;23.38;;;;;;;;;;6269880;28;20630;-60
2023/03/06 03:25:24;;;;;;;59.47;21.23;;;;;;;;;;6289045;28;20081;-61
2023/03/06 03:28:25;;;;;;;60.55;21.67;;;;;;;;;;6282840;28;20053;-61
2023/03/06 03:31:26;;;;;;;63.17;23.60;;;;;;;;;;6273461;28;20094;-60
2023/03/06 03:34:27;;;;;;;65.50;23.13;;;;;;;;;;6280713;28;20048;-61
2023/03/06 03:37:27;;;;;;;57.60;21.75;;;;;;;;;;6273140;28;20048;-61
2023/03/06 03:40:28;;;;;;;58.40;22.25;;;;;;;;;;6281471;28;20073;-61
2023/03/06 03:43:29;;;;;;;62.13;23.20;;;;;;;;;;6287829;28;20055;-61
2023/03/06 03:46:30;;;;;;;58.33;22.27;;;;;;;;;;6273087;28;20055;-62
2023/03/06 03:49:30;;;;;;;63.33;23.65;;;;;;;;;;6293257;28;20052;-62
2023/03/06 03:52:31;;;;;;;59.47;23.00;;;;;;;;;;6275012;28;20051;-63
2023/03/06 03:55:31;;;;;;;67.45;26.63;;;;;;;;;;6287760;28;20074;-60
2023/03/06 03:58:32;;;;;;;66.38;23.58;;;;;;;;;;6285620;28;20068;-59
2023/03/06 04:01:33;;;;;;;63.65;23.38;;;;;;;;;;6270234;28;20065;-60
2023/03/06 04:04:33;;;;;;;65.25;23.77;;;;;;;;;;6271738;28;20049;-59
2023/03/06 04:07:34;;;;;;;62.65;22.92;;;;;;;;;;6274670;28;20044;-59
2023/03/06 04:10:35;;;;;;;60.55;24.17;;;;;;;;;;6287947;28;20563;-59
2023/03/06 04:13:36;;;;;;;58.92;22.27;;;;;;;;;;6271177;28;20049;-59
2023/03/06 04:16:37;;;;;;;63.78;21.67;;;;;;;;;;6282570;28;20052;-59
2023/03/06 04:19:37;;;;;;;61.95;21.38;;;;;;;;;;6270691;28;20475;-61
2023/03/06 04:22:38;;;;;;;59.28;21.15;;;;;;;;;;6269567;28;20419;-60
2023/03/06 04:25:39;;;;;;;79.15;27.42;;;;;;;;;;6279359;28;20048;-60
2023/03/06 04:28:40;;;;;;;107.97;32.80;;;;;;;;;;6288892;28;20418;-60
2023/03/06 04:31:40;;;;;;;79.53;27.27;;;;;;;;;;6269489;28;20045;-61
2023/03/06 04:34:41;;;;;;;76.60;24.83;;;;;;;;;;6291541;28;20052;-60
2023/03/06 04:37:41;;;;;;;86.80;30.20;;;;;;;;;;6271103;28;20045;-60
2023/03/06 04:40:42;;;;;;;107.10;33.97;;;;;;;;;;6270021;28;20044;-61
2023/03/06 04:43:42;;;;;;;167.43;49.35;;;;;;;;;;6283661;28;20159;-62
2023/03/06 04:46:43;;;;;;;118.93;36.55;;;;;;;;;;6268618;28;20057;-60
2023/03/06 04:49:44;;;;;;;116.97;35.72;;;;;;;;;;6270183;28;20060;-60
2023/03/06 04:52:44;;;;;;;121.88;38.65;;;;;;;;;;6288609;28;20155;-60
2023/03/06 04:55:45;;;;;;;80.20;29.08;;;;;;;;;;6278859;28;20045;-61
2023/03/06 04:58:46;;;;;;;80.25;28.67;;;;;;;;;;6281061;28;20082;-63
2023/03/06 05:01:46;;;;;;;81.13;29.30;;;;;;;;;;6278653;28;20495;-60
2023/03/06 05:04:47;;;;;;;83.15;29.70;;;;;;;;;;6269768;28;20125;-60
2023/03/06 05:07:47;;;;;;;89.15;31.45;;;;;;;;;;6272296;28;20126;-61
2023/03/06 05:10:55;;;;;;;;;;;;;;;;;;6290253;28;20181;-60
2023/03/06 05:13:55;;;;;;;95.95;31.67;;;;;;;;;;6278097;28;19968;-62
2023/03/06 05:16:56;;;;;;;93.22;32.53;;;;;;;;;;6276469;28;20135;-61
2023/03/06 05:19:57;;;;;;;72.30;26.27;;;;;;;;;;6289162;28;20056;-63
2023/03/06 05:22:57;;;;;;;72.80;27.17;;;;;;;;;;6274600;28;20411;-60
2023/03/06 05:25:58;;;;;;;78.60;30.23;;;;;;;;;;6284694;28;20056;-63
2023/03/06 05:28:59;;;;;;;93.50;37.65;;;;;;;;;;6275299;28;20396;-61
2023/03/06 05:31:59;;;;;;;91.63;35.15;;;;;;;;;;6284671;28;20064;-67
2023/03/06 05:35:00;;;;;;;91.55;32.95;;;;;;;;;;6279473;28;20495;-61
2023/03/06 05:38:01;;;;;;;82.00;29.20;;;;;;;;;;6289837;28;20313;-61
2023/03/06 05:41:02;;;;;;;67.63;25.63;;;;;;;;;;6281492;28;20563;-61
2023/03/06 05:44:02;;;;;;;89.85;35.08;;;;;;;;;;6273008;28;20114;-62
2023/03/06 05:47:03;;;;;;;79.00;31.60;;;;;;;;;;6274417;28;20045;-63
2023/03/06 05:50:06;;;;;;;86.80;33.45;;;;;;;;;;6268581;28;20087;-64
2023/03/06 05:53:07;;;;;;;70.40;28.65;;;;;;;;;;6290050;28;20044;-64
2023/03/06 05:56:08;;;;;;;60.65;26.25;;;;;;;;;;6295859;28;20053;-64
2023/03/06 05:59:09;;;;;;;60.72;23.70;;;;;;;;;;6293563;28;20058;-62
2023/03/06 06:02:09;;;;;;;58.03;24.08;;;;;;;;;;6291104;28;20044;-62
2023/03/06 06:05:11;;;;;;;57.47;23.42;;;;;;;;;;6295948;28;20052;-61
2023/03/06 06:08:11;;;;;;;58.28;21.50;;;;;;;;;;6290439;28;20480;-63
2023/03/06 06:11:13;;;;;;;44.85;17.92;;;;;;;;;;6294269;28;20178;-62
2023/03/06 06:14:13;;;;;;;48.97;18.75;;;;;;;;;;6294082;28;20087;-61
2023/03/06 06:17:15;;;;;;;45.22;18.30;;;;;;;;;;6292916;28;20411;-63
2023/03/06 06:20:16;;;;;;;42.00;15.47;;;;;;;;;;6290985;28;20139;-62
2023/03/06 06:23:16;;;;;;;40.72;15.15;;;;;;;;;;6292339;28;20334;-61
2023/03/06 06:26:17;;;;;;;38.67;14.30;;;;;;;;;;6292740;28;20052;-61
2023/03/06 06:29:18;;;;;;;40.78;15.20;;;;;;;;;;6293349;28;20127;-61
2023/03/06 06:32:19;;;;;;;39.38;14.82;;;;;;;;;;6296669;28;20048;-62
2023/03/06 06:35:19;;;;;;;43.85;15.65;;;;;;;;;;6295273;28;20059;-61
2023/03/06 06:38:20;;;;;;;38.90;16.70;;;;;;;;;;6290253;28;20052;-61
2023/03/06 06:41:21;;;;;;;40.47;14.82;;;;;;;;;;6281293;28;20208;-63
2023/03/06 06:44:21;;;;;;;35.38;15.38;;;;;;;;;;6272496;28;20051;-61
2023/03/06 06:47:22;;;;;;;39.58;14.82;;;;;;;;;;6272667;28;20091;-61
2023/03/06 06:50:22;;;;;;;36.20;14.02;;;;;;;;;;6269265;28;20119;-61
2023/03/06 06:53:23;;;;;;;38.08;13.20;;;;;;;;;;6274325;28;20485;-61
2023/03/06 06:56:24;;;;;;;34.05;14.35;;;;;;;;;;6271108;28;20051;-62
2023/03/06 06:59:25;;;;;;;33.00;13.70;;;;;;;;;;6272379;28;20029;-61
2023/03/06 07:02:26;;;;;;;33.10;13.27;;;;;;;;;;6274499;28;20078;-61
2023/03/06 07:05:26;;;;;;;31.83;14.25;;;;;;;;;;6283222;28;20093;-61
2023/03/06 07:08:27;;;;;;;34.50;15.05;;;;;;;;;;6290647;28;20080;-63
2023/03/06 07:11:28;;;;;;;33.63;13.65;;;;;;;;;;6280199;28;20044;-62
2023/03/06 07:14:28;;;;;;;31.17;13.32;;;;;;;;;;6279324;28;20120;-61
2023/03/06 07:17:29;;;;;;;33.25;13.32;;;;;;;;;;6293379;28;20060;-61
2023/03/06 07:20:30;;;;;;;33.10;11.43;;;;;;;;;;6270122;28;20059;-61
2023/03/06 07:23:31;;;;;;;32.10;13.37;;;;;;;;;;6272710;28;20037;-61
2023/03/06 07:26:32;;;;;;;38.72;12.85;;;;;;;;;;6274515;28;20045;-62
2023/03/06 07:29:34;;;;;;;38.50;13.02;;;;;;;;;;6283479;28;20507;-61
2023/03/06 07:32:35;;;;;;;37.83;14.73;;;;;;;;;;6270126;28;20044;-61
2023/03/06 07:35:35;;;;;;;32.13;13.15;;;;;;;;;;6272211;28;20056;-59
2023/03/06 07:38:36;;;;;;;29.30;13.45;;;;;;;;;;6271938;28;20048;-61
2023/03/06 07:41:37;;;;;;;30.73;11.52;;;;;;;;;;6269757;28;20403;-62
2023/03/06 07:44:37;;;;;;;29.50;12.45;;;;;;;;;;6275297;28;20048;-61
2023/03/06 07:47:39;;;;;;;27.63;11.68;;;;;;;;;;6274343;28;20549;-61
2023/03/06 07:50:40;;;;;;;31.05;12.05;;;;;;;;;;6271504;28;20052;-62
2023/03/06 07:53:41;;;;;;;27.65;12.02;;;;;;;;;;6269061;28;20036;-61
2023/03/06 07:56:42;;;;;;;30.00;11.65;;;;;;;;;;6271123;28;20052;-61
2023/03/06 07:59:42;;;;;;;28.38;12.52;;;;;;;;;;6268073;28;20507;-61
2023/03/06 08:02:43;;;;;;;25.77;12.57;;;;;;;;;;6269051;28;20049;-61
2023/03/06 08:05:44;;;;;;;25.10;10.50;;;;;;;;;;6275218;28;20181;-63
2023/03/06 08:08:46;;;;;;;23.65;10.15;;;;;;;;;;6275870;28;20040;-62
2023/03/06 08:11:47;;;;;;;;;;;;;;;;;;6271062;28;20127;-61
2023/03/06 08:14:47;;;;;;;26.17;10.38;;;;;;;;;;6271306;28;19928;-61
2023/03/06 08:17:49;;;;;;;25.75;9.80;;;;;;;;;;6271981;28;20418;-61
2023/03/06 08:20:49;;;;;;;24.70;10.23;;;;;;;;;;6273680;28;20041;-61
2023/03/06 08:23:51;;;;;;;22.88;11.02;;;;;;;;;;6269423;28;20068;-62
2023/03/06 08:26:52;;;;;;;23.17;9.65;;;;;;;;;;6272300;28;20057;-64
2023/03/06 08:29:52;;;;;;;23.17;10.23;;;;;;;;;;6269809;28;20049;-61
2023/03/06 08:32:53;;;;;;;25.60;11.07;;;;;;;;;;6269377;28;20052;-62
2023/03/06 08:35:53;;;;;;;27.55;9.73;;;;;;;;;;6280877;28;20044;-63
2023/03/06 08:38:55;;;;;;;25.63;9.57;;;;;;;;;;6269126;28;20037;-62
2023/03/06 08:41:56;;;;;;;23.40;9.68;;;;;;;;;;6270790;28;20040;-62
2023/03/06 08:44:56;;;;;;;24.27;10.35;;;;;;;;;;6272776;28;20048;-61
2023/03/06 08:47:57;;;;;;;22.63;8.50;;;;;;;;;;6274399;28;20056;-62
2023/03/06 08:50:58;;;;;;;22.33;9.13;;;;;;;;;;6277134;28;20056;-63
2023/03/06 08:53:59;;;;;;;22.30;9.23;;;;;;;;;;6276910;28;20048;-62
2023/03/06 08:57:00;;;;;;;18.88;9.00;;;;;;;;;;6273209;28;20071;-61
2023/03/06 09:00:00;;;;;;;21.65;9.23;;;;;;;;;;6273886;28;20142;-61
2023/03/06 09:03:01;;;;;;;22.73;9.85;;;;;;;;;;6274604;28;20056;-61
2023/03/06 09:06:02;;;;;;;19.38;8.93;;;;;;;;;;6274892;28;20052;-62
2023/03/06 09:09:03;;;;;;;22.02;11.40;;;;;;;;;;6275151;28;20137;-61
2023/03/06 09:12:03;;;;;;;21.30;9.40;;;;;;;;;;6274903;28;20411;-61
2023/03/06 09:15:04;;;;;;;22.65;9.18;;;;;;;;;;6274849;28;20052;-61
2023/03/06 09:18:05;;;;;;;18.58;9.00;;;;;;;;;;6271672;28;20041;-61
2023/03/06 09:21:07;;;;;;;22.95;9.77;;;;;;;;;;6272709;28;20049;-62
2023/03/06 09:24:08;;;;;;;24.80;9.48;;;;;;;;;;6274982;28;20424;-63
2023/03/06 09:27:08;;;;;;;20.27;10.40;;;;;;;;;;6275144;28;20056;-61
2023/03/06 09:30:10;;;;;;;24.10;10.82;;;;;;;;;;6273064;28;20173;-62
2023/03/06 09:33:10;;;;;;;23.95;9.57;;;;;;;;;;6275321;28;20683;-62
2023/03/06 09:36:17;;;;;;;24.45;9.88;;;;;;;;;;6275597;28;20045;-64
2023/03/06 09:39:18;;;;;;;24.95;9.27;;;;;;;;;;6274126;28;20040;-61
2023/03/06 09:42:22;;;;;;;23.05;10.30;;;;;;;;;;6273253;28;20041;-62
2023/03/06 09:45:23;;;;;;;23.55;11.52;;;;;;;;;;6271021;28;20051;-63
2023/03/06 09:48:38;;;;;;;18.50;7.60;;;;;;;;;;6273755;28;20040;-64
2023/03/06 09:52:03;;;;;;;20.17;8.80;;;;;;;;;;6271001;28;20095;-61
2023/03/06 09:55:26;;;;;;;20.00;8.52;;;;;;;;;;6274425;28;20045;-63
2023/03/06 09:58:29;;;;;;;18.35;7.40;;;;;;;;;;6270742;28;20048;-63
2023/03/06 10:01:35;;;;;;;16.25;7.25;;;;;;;;;;6270759;28;20133;-62
2023/03/06 10:04:42;;;;;;;18.08;7.35;;;;;;;;;;6273667;28;20452;-63
2023/03/06 10:07:55;;;;;;;18.98;8.25;;;;;;;;;;6272086;28;20047;-61
2023/03/06 10:11:01;;;;;;;17.92;8.75;;;;;;;;;;6270355;28;20057;-63
2023/03/06 10:14:35;;;;;;;15.98;7.30;;;;;;;;;;6271540;28;20140;-62
2023/03/06 10:17:39;;;;;;;18.02;7.55;;;;;;;;;;6271699;28;20055;-61
2023/03/06 10:20:56;;;;;;;21.33;7.65;;;;;;;;;;6280366;28;20127;-63
2023/03/06 10:24:26;;;;;;;18.42;7.57;;;;;;;;;;6281155;28;20469;-63
2023/03/06 10:27:33;;;;;;;15.45;7.13;;;;;;;;;;6280807;28;20849;-62
2023/03/06 10:30:41;;;;;;;21.00;7.35;;;;;;;;;;6275935;28;20033;-63
2023/03/06 10:34:02;;;;;;;20.73;8.60;;;;;;;;;;6271842;28;20041;-61
2023/03/06 10:37:14;;;;;;;17.23;7.55;;;;;;;;;;6272019;28;20044;-63
2023/03/06 10:40:33;;;;;;;15.75;6.88;;;;;;;;;;6273821;28;20135;-62
2023/03/06 10:43:35;;;;;;;12.70;6.03;;;;;;;;;;6275531;28;20131;-61
2023/03/06 10:46:41;;;;;;;16.00;6.20;;;;;;;;;;6269949;28;20049;-61
2023/03/06 10:49:41;;;;;;;14.25;5.80;;;;;;;;;;6272102;28;20036;-63
2023/03/06 10:52:43;;;;;;;15.60;6.97;;;;;;;;;;6271290;28;20055;-63
2023/03/06 10:55:51;;;;;;;15.20;6.20;;;;;;;;;;6270705;28;20072;-63
2023/03/06 10:59:04;;;;;;;13.07;5.85;;;;;;;;;;6272486;28;20177;-63
2023/03/06 11:02:24;;;;;;;;;;;;;;;;;;6270883;28;20079;-63
2023/03/06 11:05:25;;;;;;;11.05;5.07;;;;;;;;;;6269119;28;20283;-63
2023/03/06 11:08:28;;;;;;;12.77;4.87;;;;;;;;;;6274195;28;20403;-62
2023/03/06 11:11:29;;;;;;;10.73;4.80;;;;;;;;;;6271303;28;20041;-62
2023/03/06 11:14:29;;;;;;;9.27;4.40;;;;;;;;;;6269224;28;20044;-62
2023/03/06 11:17:32;;;;;;;15.50;5.38;;;;;;;;;;6271263;28;20084;-61
2023/03/06 11:20:40;;;;;;;16.73;6.55;;;;;;;;;;6274949;28;20791;-62
2023/03/06 11:23:47;;;;;;;11.60;4.82;;;;;;;;;;6272342;28;20049;-63
2023/03/06 11:26:55;;;;;;;16.33;7.80;;;;;;;;;;6269125;28;20160;-62
2023/03/06 11:29:58;;;;;;;13.30;5.22;;;;;;;;;;6271399;28;20079;-63
2023/03/06 11:33:18;;;;;;;13.02;6.07;;;;;;;;;;6271050;28;20101;-63
2023/03/06 11:36:29;;;;;;;10.32;4.10;;;;;;;;;;6269611;28;20040;-62
2023/03/06 11:39:52;;;;;;;11.35;4.82;;;;;;;;;;6272735;28;20052;-63
2023/03/06 11:43:10;;;;;;;11.18;4.90;;;;;;;;;;6269176;28;20102;-63
2023/03/06 11:46:21;;;;;;;13.88;5.93;;;;;;;;;;6268683;28;20453;-63
2023/03/06 11:49:27;;;;;;;28.95;11.50;;;;;;;;;;6270614;28;20143;-63
2023/03/06 11:52:45;;;;;;;13.77;7.05;;;;;;;;;;6268851;28;20044;-62
2023/03/06 12:18:12;;;;;;;10.57;5.32;;;;;;;;;;6370135;27;20414;-62
2023/03/06 12:21:32;;;;;;;8.85;4.68;;;;;;;;;;6354577;27;20039;-62
2023/03/06 12:24:44;;;;;;;10.70;4.70;;;;;;;;;;6347949;27;20039;-61
2023/03/06 12:27:51;;;;;;;11.32;4.82;;;;;;;;;;6349809;27;20036;-61
2023/03/06 12:31:07;;;;;;;8.95;4.70;;;;;;;;;;6357041;27;20404;-61
2023/03/06 12:34:41;;;;;;;9.73;4.70;;;;;;;;;;6360273;27;20042;-61
2023/03/06 12:37:54;;;;;;;9.48;4.93;;;;;;;;;;6337599;27;20469;-62
2023/03/06 12:41:01;;;;;;;11.52;6.10;;;;;;;;;;6338937;27;20043;-62
2023/03/06 12:44:20;;;;;;;8.35;3.58;;;;;;;;;;6338871;27;20039;-61
2023/03/06 12:47:24;;;;;;;6.20;3.03;;;;;;;;;;6338832;27;20052;-62
2023/03/06 12:50:29;;;;;;;7.88;4.15;;;;;;;;;;6341208;27;20071;-62
2023/03/06 12:53:33;;;;;;;9.45;4.30;;;;;;;;;;6337310;27;20082;-62
2023/03/06 12:56:34;;;;;;;11.18;6.65;;;;;;;;;;6341823;27;20138;-62
2023/03/06 12:59:46;;;;;;;12.88;7.65;;;;;;;;;;6347686;27;20040;-62
2023/03/06 13:03:12;;;;;;;6.75;3.97;;;;;;;;;;6346359;27;21703;-63
2023/03/06 13:06:19;;;;;;;5.57;3.30;;;;;;;;;;6341700;27;20417;-62
2023/03/06 13:09:32;;;;;;;7.00;3.03;;;;;;;;;;6334543;27;20779;-64
2023/03/06 13:12:35;;;;;;;6.25;3.10;;;;;;;;;;6342830;27;20394;-61
2023/03/06 13:15:57;;;;;;;6.88;4.10;;;;;;;;;;6345454;27;20061;-64
2023/03/06 13:19:16;;;;;;;8.45;4.22;;;;;;;;;;6319345;27;20044;-63
2023/03/06 13:22:25;;;;;;;6.43;3.20;;;;;;;;;;6324217;27;20055;-64
2023/03/06 13:25:29;;;;;;;9.35;4.63;;;;;;;;;;6320447;27;20063;-64
2023/03/06 13:28:49;;;;;;;7.93;3.53;;;;;;;;;;6320372;27;20052;-64
2023/03/06 13:31:52;;;;;;;9.18;4.05;;;;;;;;;;6322052;27;20042;-64
2023/03/06 13:34:53;;;;;;;7.05;3.85;;;;;;;;;;6321161;27;20040;-64
2023/03/06 13:37:54;;;;;;;8.02;3.72;;;;;;;;;;6324040;27;20051;-64
2023/03/06 13:41:26;;;;;;;8.65;3.60;;;;;;;;;;6323324;27;20048;-64
2023/03/06 13:44:29;;;;;;;9.88;5.18;;;;;;;;;;6320571;27;20075;-61
2023/03/06 13:47:37;;;;;;;;;;;;;;;;;;6319997;27;20048;-64
2023/03/06 13:50:43;;;;;;;45.65;15.02;;;;;;;;;;6323968;27;19923;-64
2023/03/06 13:54:09;;;;;;;19.27;10.52;;;;;;;;;;6320753;27;20036;-64
2023/03/06 13:57:52;;;;;;;14.13;7.03;;;;;;;;;;6324695;27;20113;-64
2023/03/06 14:01:04;;;;;;;9.70;4.63;;;;;;;;;;6291072;27;20047;-64
2023/03/06 14:04:26;;;;;;;15.25;6.10;;;;;;;;;;6321084;27;20361;-64
2023/03/06 14:07:38;;;;;;;48.88;20.30;;;;;;;;;;6319407;27;20502;-64
2023/03/06 14:10:39;;;;;;;;;;;;;;;;;;6321513;27;20352;-64
2023/03/06 14:13:48;;;;;;;9.70;4.72;;;;;;;;;;6321925;27;19924;-63
2023/03/06 14:16:49;;;;;;;8.13;4.00;;;;;;;;;;6318165;27;20452;-63
2023/03/06 14:19:50;;;;;;;15.57;6.95;;;;;;;;;;6317231;27;20044;-64
2023/03/06 14:22:51;;;;;;;11.07;4.18;;;;;;;;;;6325130;27;20524;-63
2023/03/06 14:26:07;;;;;;;10.80;3.80;;;;;;;;;;6317778;27;20098;-63
2023/03/06 14:29:25;;;;;;;9.52;4.30;;;;;;;;;;6314298;27;20046;-64
2023/03/06 14:32:26;;;;;;;15.98;7.05;;;;;;;;;;6317012;27;20048;-64
2023/03/06 14:35:31;;;;;;;13.40;8.20;;;;;;;;;;6319633;27;20048;-64
2023/03/06 14:38:36;;;;;;;14.35;6.65;;;;;;;;;;6321424;27;20048;-64
2023/03/06 14:41:38;;;;;;;14.02;7.22;;;;;;;;;;6318005;27;20088;-64
2023/03/06 14:44:38;;;;;;;12.20;6.72;;;;;;;;;;6321032;27;20070;-64
2023/03/06 14:47:39;;;;;;;9.40;5.28;;;;;;;;;;6320069;27;20545;-64
2023/03/06 14:50:40;;;;;;;10.30;5.28;;;;;;;;;;6319035;27;20040;-64
2023/03/06 14:53:43;;;;;;;9.20;4.72;;;;;;;;;;6321043;27;20063;-64
2023/03/06 14:56:47;;;;;;;8.38;4.78;;;;;;;;;;6316991;27;20074;-64
2023/03/06 14:59:55;;;;;;;9.80;4.47;;;;;;;;;;6317075;27;20068;-63
2023/03/06 15:02:56;;;;;;;6.68;3.92;;;;;;;;;;6321481;27;20032;-64
2023/03/06 15:05:57;;;;;;;8.25;3.92;;;;;;;;;;6320143;27;20051;-64
2023/03/06 15:09:12;;;;;;;7.25;3.80;;;;;;;;;;6317783;27;20070;-64
2023/03/06 15:12:18;;;;;;;7.20;3.83;;;;;;;;;;6321367;27;20418;-64
2023/03/06 15:15:23;;;;;;;8.10;4.18;;;;;;;;;;6315058;28;20085;-63
2023/03/06 15:18:34;;;;;;;7.18;3.72;;;;;;;;;;6318229;27;20050;-64
2023/03/06 15:21:37;;;;;;;9.40;4.47;;;;;;;;;;6319351;27;20048;-63
2023/03/06 15:24:38;;;;;;;10.98;4.68;;;;;;;;;;6319411;27;20575;-63
2023/03/06 15:27:38;;;;;;;10.05;5.32;;;;;;;;;;6317042;27;20040;-62
2023/03/06 15:30:39;;;;;;;13.35;6.60;;;;;;;;;;6310878;27;20051;-64
2023/03/06 15:33:40;;;;;;;26.92;14.93;;;;;;;;;;6313021;27;20040;-64
2023/03/06 15:36:48;;;;;;;18.30;8.82;;;;;;;;;;6307505;28;20059;-63
2023/03/06 15:40:03;;;;;;;25.15;14.45;;;;;;;;;;6309527;28;20075;-65
2023/03/06 15:43:09;;;;;;;22.50;10.52;;;;;;;;;;6310997;28;20695;-63
2023/03/06 15:46:10;;;;;;;19.80;10.05;;;;;;;;;;6308661;27;20154;-63
2023/03/06 15:49:17;;;;;;;20.92;10.00;;;;;;;;;;6306444;28;20139;-63
2023/03/06 15:52:19;;;;;;;23.52;11.75;;;;;;;;;;6312392;28;20048;-64
2023/03/06 15:55:21;;;;;;;;;;;;;;;;;;6308961;28;20227;-64
2023/03/06 15:58:25;;;;;;;17.15;8.68;;;;;;;;;;6309681;28;20015;-64
2023/03/06 16:01:26;;;;;;;22.60;10.40;;;;;;;;;;6310345;28;20052;-65
2023/03/06 16:04:28;;;;;;;26.63;15.57;;;;;;;;;;6308317;28;20044;-62
2023/03/06 16:07:29;;;;;;;38.65;25.13;;;;;;;;;;6307218;28;20648;-63
2023/03/06 16:10:32;;;;;;;47.20;28.33;;;;;;;;;;6305654;28;20066;-64
2023/03/06 16:13:33;;;;;;;43.03;17.98;;;;;;;;;;6310640;28;20074;-64
2023/03/06 16:16:36;;;;;;;51.75;24.58;;;;;;;;;;6314092;28;20598;-63
2023/03/06 16:19:37;;;;;;;70.80;38.15;;;;;;;;;;6312441;28;20054;-63
2023/03/06 16:22:38;;;;;;;56.42;24.48;;;;;;;;;;6314444;28;20394;-63
2023/03/06 16:25:40;;;;;;;99.22;32.95;;;;;;;;;;6318406;28;20040;-64
2023/03/06 16:28:41;;;;;;;49.83;23.13;;;;;;;;;;6311303;28;20473;-62
2023/03/06 16:31:42;;;;;;;65.90;32.08;;;;;;;;;;6311659;28;20032;-63
2023/03/06 16:34:43;;;;;;;71.63;25.77;;;;;;;;;;6309668;28;20048;-62
2023/03/06 16:37:44;;;;;;;106.15;38.10;;;;;;;;;;6309900;28;20059;-62
2023/03/06 16:40:45;;;;;;;41.08;19.38;;;;;;;;;;6305921;28;20106;-62
2023/03/06 16:43:46;;;;;;;40.33;23.90;;;;;;;;;;6310311;28;20047;-62
2023/03/06 16:46:48;;;;;;;44.38;18.98;;;;;;;;;;6307026;28;20048;-63
2023/03/06 16:49:50;;;;;;;37.35;19.45;;;;;;;;;;6309940;28;20040;-63
2023/03/06 16:52:52;;;;;;;34.72;18.70;;;;;;;;;;6309889;27;20047;-62
2023/03/06 16:55:53;;;;;;;30.95;15.23;;;;;;;;;;6312928;27;20381;-63
2023/03/06 16:58:53;;;;;;;33.42;16.63;;;;;;;;;;6310659;28;20066;-61
2023/03/06 17:01:54;;;;;;;41.90;21.00;;;;;;;;;;6317896;27;20048;-62
2023/03/06 17:04:54;;;;;;;44.45;22.45;;;;;;;;;;6315112;28;20601;-62
2023/03/06 17:07:55;;;;;;;35.92;19.25;;;;;;;;;;6318233;27;20063;-63
2023/03/06 17:10:56;;;;;;;36.47;17.38;;;;;;;;;;6317198;28;20048;-62
2023/03/06 17:13:57;;;;;;;35.30;16.92;;;;;;;;;;6317135;27;20047;-62
2023/03/06 17:16:57;;;;;;;35.50;17.23;;;;;;;;;;6319095;27;20172;-62
2023/03/06 17:19:58;;;;;;;32.97;16.63;;;;;;;;;;6316667;28;20078;-62
2023/03/06 17:22:59;;;;;;;115.72;46.22;;;;;;;;;;6317040;28;20078;-62
2023/03/06 17:26:14;;;;;;;115.35;45.58;;;;;;;;;;6315354;27;20046;-62
2023/03/06 17:29:15;;;;;;;125.70;39.88;;;;;;;;;;6315571;27;20047;-62
2023/03/06 17:32:15;;;;;;;98.18;30.30;;;;;;;;;;6318209;28;20048;-62
2023/03/06 17:35:16;;;;;;;98.10;38.75;;;;;;;;;;6318050;28;20040;-62
2023/03/06 17:38:16;;;;;;;139.75;45.25;;;;;;;;;;6318210;27;20662;-63
2023/03/06 17:41:18;;;;;;;83.85;29.75;;;;;;;;;;6317716;27;20522;-62
2023/03/06 17:44:18;;;;;;;86.97;29.73;;;;;;;;;;6317493;27;20070;-62
2023/03/06 17:47:19;;;;;;;89.85;39.08;;;;;;;;;;6318985;28;20040;-60
2023/03/06 17:50:20;;;;;;;54.67;23.60;;;;;;;;;;6316105;27;20040;-59
2023/03/06 17:53:21;;;;;;;74.88;29.55;;;;;;;;;;6319359;27;20071;-59
2023/03/06 17:56:22;;;;;;;73.97;31.50;;;;;;;;;;6315777;28;20487;-59
2023/03/06 17:59:22;;;;;;;39.70;16.73;;;;;;;;;;6298681;28;20047;-60
2023/03/06 18:02:23;;;;;;;33.45;15.25;;;;;;;;;;6325947;27;20486;-60
2023/03/06 18:05:24;;;;;;;31.05;13.43;;;;;;;;;;6322532;27;20058;-62
2023/03/06 18:08:24;;;;;;;42.45;19.15;;;;;;;;;;6314634;27;20048;-62
2023/03/06 18:11:26;;;;;;;37.47;14.63;;;;;;;;;;6319070;27;20058;-60
2023/03/06 18:14:26;;;;;;;30.60;14.57;;;;;;;;;;6325332;27;20074;-62
2023/03/06 18:17:27;;;;;;;36.35;17.35;;;;;;;;;;6324017;28;20510;-61
2023/03/06 18:20:28;;;;;;;34.10;14.65;;;;;;;;;;6301289;27;20470;-60
2023/03/06 18:23:28;;;;;;;36.85;16.27;;;;;;;;;;6319941;27;20054;-63